Time;durP1;ratioP1;P1;durP2;ratioP2;P2;SDS_P1;SDS_P2;PMS_P1;PMS_P2;Temp;Humidity;BMP_temperature;BMP_pressure;BME280_temperature;BME280_humidity;BME280_pressure;Samples;Min_cycle;Max_cycle;Signal;HPM_P1;HPM_P2
2023/06/08 00:02:10;;;;;;;1.00;0.70;;;19.30;99.90;;;;;;5093534;28;20416;-63
2023/06/08 00:04:40;;;;;;;2.10;0.80;;;19.30;99.90;;;;;;5092900;28;20426;-61
2023/06/08 00:07:10;;;;;;;1.40;0.73;;;19.30;99.90;;;;;;5094053;28;20453;-62
2023/06/08 00:09:38;;;;;;;1.00;0.70;;;19.30;99.90;;;;;;5093862;28;20430;-62
2023/06/08 00:12:06;;;;;;;1.10;0.80;;;19.20;99.90;;;;;;5094054;28;20762;-62
2023/06/08 00:14:34;;;;;;;1.20;0.80;;;19.10;99.90;;;;;;5093155;28;20751;-62
2023/06/08 00:17:03;;;;;;;1.60;0.70;;;19.00;99.90;;;;;;5094087;28;20479;-62
2023/06/08 00:19:30;;;;;;;1.52;0.85;;;18.90;99.90;;;;;;5093586;28;20465;-62
2023/06/08 00:21:58;;;;;;;1.00;0.80;;;18.90;99.90;;;;;;5094797;28;20429;-62
2023/06/08 00:24:27;;;;;;;1.90;0.80;;;18.80;99.90;;;;;;5093311;28;20430;-62
2023/06/08 00:26:54;;;;;;;1.10;0.80;;;18.80;99.90;;;;;;5094034;28;20445;-61
2023/06/08 00:29:21;;;;;;;1.00;0.80;;;18.80;99.90;;;;;;5092803;28;20475;-61
2023/06/08 00:31:48;;;;;;;1.00;0.80;;;18.90;99.90;;;;;;5094943;28;20421;-61
2023/06/08 00:34:16;;;;;;;1.00;0.80;;;19.00;99.90;;;;;;5094972;28;20584;-61
2023/06/08 00:36:43;;;;;;;1.67;0.80;;;19.00;99.90;;;;;;5095622;28;20503;-61
2023/06/08 00:39:10;;;;;;;1.00;0.80;;;19.00;99.90;;;;;;5094725;28;20657;-61
2023/06/08 00:41:38;;;;;;;0.93;0.70;;;19.00;99.90;;;;;;5094585;28;20429;-61
2023/06/08 00:44:06;;;;;;;0.90;0.80;;;19.00;99.90;;;;;;5094972;28;20426;-61
2023/06/08 00:46:34;;;;;;;0.90;0.73;;;18.90;99.90;;;;;;5094714;28;20519;-61
2023/06/08 00:49:02;;;;;;;1.00;0.80;;;18.90;99.90;;;;;;5094039;28;20425;-60
2023/06/08 00:51:34;;;;;;;1.20;0.80;;;18.80;99.90;;;;;;5093485;28;20425;-61
2023/06/08 00:54:02;;;;;;;1.00;0.80;;;18.80;99.90;;;;;;5094544;28;20422;-61
2023/06/08 00:56:31;;;;;;;1.30;0.80;;;18.80;99.90;;;;;;5095133;28;20479;-61
2023/06/08 00:59:02;;;;;;;0.90;0.80;;;18.70;99.90;;;;;;5094677;28;20426;-61
2023/06/08 01:01:30;;;;;;;1.00;0.80;;;18.70;99.90;;;;;;5094328;28;20459;-62
2023/06/08 01:04:05;;;;;;;0.95;0.80;;;18.70;99.90;;;;;;5094817;28;20422;-62
2023/06/08 01:06:33;;;;;;;1.00;0.80;;;18.70;99.90;;;;;;5095281;28;20425;-62
2023/06/08 01:09:12;;;;;;;1.20;0.80;;;18.70;99.90;;;;;;5094237;28;20421;-62
2023/06/08 01:11:50;;;;;;;1.00;0.80;;;18.70;99.90;;;;;;5093388;28;20430;-62
2023/06/08 01:14:29;;;;;;;1.10;0.77;;;18.70;99.90;;;;;;5094138;28;20533;-62
2023/06/08 01:17:01;;;;;;;1.30;0.90;;;18.60;99.90;;;;;;5094257;28;20434;-60
2023/06/08 01:19:42;;;;;;;1.00;0.80;;;18.60;99.90;;;;;;5094677;28;20440;-61
2023/06/08 01:22:15;;;;;;;1.00;0.80;;;18.50;99.90;;;;;;5092761;28;20924;-60
2023/06/08 01:24:49;;;;;;;1.05;0.90;;;18.50;99.90;;;;;;5093051;28;20801;-61
2023/06/08 01:27:17;;;;;;;1.40;0.90;;;18.40;99.90;;;;;;5095034;28;20426;-60
2023/06/08 01:29:45;;;;;;;1.15;0.90;;;18.40;99.90;;;;;;5095321;28;20783;-60
2023/06/08 01:32:12;;;;;;;1.50;1.00;;;18.40;99.90;;;;;;5094749;28;21107;-60
2023/06/08 01:34:40;;;;;;;1.10;0.90;;;18.30;99.90;;;;;;5096677;28;20425;-61
2023/06/08 01:37:13;;;;;;;0.98;0.80;;;18.20;99.90;;;;;;5097239;28;20434;-62
2023/06/08 01:39:56;;;;;;;1.00;0.80;;;18.20;99.90;;;;;;5094378;28;20520;-61
2023/06/08 01:42:26;;;;;;;1.10;0.80;;;18.20;99.90;;;;;;5094558;28;20494;-61
2023/06/08 01:44:58;;;;;;;1.00;0.80;;;18.20;99.90;;;;;;5094415;28;20623;-62
2023/06/08 01:47:32;;;;;;;1.23;0.80;;;18.20;99.90;;;;;;5095235;28;20493;-62
2023/06/08 01:49:59;;;;;;;2.10;0.80;;;18.10;99.90;;;;;;5095334;28;20475;-63
2023/06/08 01:52:27;;;;;;;1.05;0.80;;;18.00;99.90;;;;;;5094005;28;20425;-61
2023/06/08 01:54:55;;;;;;;1.90;0.80;;;18.10;99.90;;;;;;5096161;28;20722;-61
2023/06/08 01:57:22;;;;;;;2.00;0.90;;;18.10;99.90;;;;;;5098192;28;20433;-61
2023/06/08 01:59:49;;;;;;;1.10;0.90;;;18.10;99.90;;;;;;5096508;28;20903;-60
2023/06/08 02:02:16;;;;;;;1.10;0.75;;;18.10;99.90;;;;;;5095899;28;20507;-61
2023/06/08 02:04:43;;;;;;;1.50;0.90;;;18.10;99.90;;;;;;5096052;28;20471;-61
2023/06/08 02:07:10;;;;;;;0.98;0.80;;;18.00;99.90;;;;;;5096845;28;20430;-60
2023/06/08 02:09:37;;;;;;;1.00;0.80;;;18.00;99.90;;;;;;5096735;28;20487;-61
2023/06/08 02:12:08;;;;;;;1.40;0.90;;;18.00;99.90;;;;;;5097091;28;20453;-60
2023/06/08 02:14:35;;;;;;;1.40;0.90;;;17.90;99.90;;;;;;5097574;28;21468;-60
2023/06/08 02:17:03;;;;;;;1.50;0.90;;;17.80;99.90;;;;;;5097599;28;20834;-60
2023/06/08 02:19:31;;;;;;;2.30;0.80;;;17.70;99.90;;;;;;5096914;28;20487;-60
2023/06/08 02:21:59;;;;;;;1.10;0.80;;;17.70;99.90;;;;;;5097185;28;20444;-60
2023/06/08 02:24:26;;;;;;;1.10;0.80;;;17.70;99.90;;;;;;5096863;28;20422;-60
2023/06/08 02:26:54;;;;;;;1.15;0.90;;;17.70;99.90;;;;;;5097662;28;20428;-60
2023/06/08 02:29:23;;;;;;;1.08;0.90;;;17.70;99.90;;;;;;5096673;28;20810;-61
2023/06/08 02:31:50;;;;;;;1.33;0.98;;;17.70;99.90;;;;;;5097169;28;20425;-60
2023/06/08 02:34:17;;;;;;;1.30;0.90;;;17.80;99.90;;;;;;5097338;28;20425;-61
2023/06/08 02:36:47;;;;;;;1.65;0.90;;;17.70;99.90;;;;;;5097879;28;20464;-61
2023/06/08 02:39:14;;;;;;;1.00;0.85;;;17.70;99.90;;;;;;5096244;28;20426;-61
2023/06/08 02:41:41;;;;;;;1.00;0.73;;;17.70;99.90;;;;;;5096117;28;20706;-61
2023/06/08 02:44:08;;;;;;;0.95;0.80;;;17.80;99.90;;;;;;5096303;28;20654;-61
2023/06/08 02:46:38;;;;;;;1.10;0.90;;;17.70;99.90;;;;;;5096720;28;20454;-60
2023/06/08 02:49:05;;;;;;;1.00;0.80;;;17.60;99.90;;;;;;5097431;28;20429;-60
2023/06/08 02:51:32;;;;;;;1.00;0.80;;;17.70;99.90;;;;;;5097270;28;20425;-61
2023/06/08 02:53:59;;;;;;;1.70;0.90;;;17.60;99.90;;;;;;5096937;28;20426;-61
2023/06/08 02:56:27;;;;;;;1.40;0.90;;;17.50;99.90;;;;;;5096781;28;20422;-61
2023/06/08 02:58:54;;;;;;;1.20;0.80;;;17.40;99.90;;;;;;5096852;28;20471;-61
2023/06/08 03:01:21;;;;;;;1.20;0.90;;;17.40;99.90;;;;;;5096141;28;20457;-61
2023/06/08 03:03:51;;;;;;;1.15;0.80;;;17.40;99.90;;;;;;5096273;28;20433;-61
2023/06/08 03:06:19;;;;;;;1.00;0.88;;;17.40;99.90;;;;;;5096466;28;20430;-61
2023/06/08 03:08:47;;;;;;;1.20;0.80;;;17.40;99.90;;;;;;5097071;28;20426;-61
2023/06/08 03:11:14;;;;;;;1.10;0.80;;;17.30;99.90;;;;;;5096194;28;20426;-61
2023/06/08 03:13:41;;;;;;;1.30;0.95;;;17.20;99.90;;;;;;5096479;28;20418;-63
2023/06/08 03:16:08;;;;;;;1.90;1.00;;;17.10;99.90;;;;;;5096148;28;20484;-61
2023/06/08 03:18:35;;;;;;;1.20;0.90;;;17.00;99.90;;;;;;5095354;28;20477;-61
2023/06/08 03:21:04;;;;;;;1.17;0.88;;;16.90;99.90;;;;;;5096014;28;20529;-61
2023/06/08 03:23:33;;;;;;;1.10;0.90;;;16.90;99.90;;;;;;5095387;28;20418;-60
2023/06/08 03:25:59;;;;;;;1.65;1.00;;;16.90;99.90;;;;;;5096703;28;20421;-60
2023/06/08 03:28:26;;;;;;;1.20;0.80;;;16.80;99.90;;;;;;5095877;28;20487;-60
2023/06/08 03:30:53;;;;;;;1.10;0.80;;;16.80;99.90;;;;;;5095741;28;20472;-64
2023/06/08 03:33:20;;;;;;;1.20;1.00;;;16.80;99.90;;;;;;5096408;28;20479;-61
2023/06/08 03:35:47;;;;;;;1.20;0.90;;;16.90;99.90;;;;;;5096164;28;20791;-62
2023/06/08 03:38:16;;;;;;;1.10;0.90;;;17.10;99.90;;;;;;5096392;28;20430;-62
2023/06/08 03:40:43;;;;;;;1.00;0.70;;;17.10;99.90;;;;;;5095954;28;20491;-62
2023/06/08 03:43:10;;;;;;;1.50;1.00;;;17.10;99.90;;;;;;5096488;28;20475;-61
2023/06/08 03:45:37;;;;;;;1.20;0.90;;;17.10;99.90;;;;;;5096146;28;20787;-62
2023/06/08 03:48:04;;;;;;;1.10;0.90;;;17.00;99.90;;;;;;5095662;28;20483;-61
2023/06/08 03:50:31;;;;;;;2.70;0.90;;;17.00;99.90;;;;;;5094972;28;20834;-61
2023/06/08 03:52:58;;;;;;;1.20;0.80;;;17.00;99.90;;;;;;5096220;28;20508;-61
2023/06/08 03:55:28;;;;;;;1.50;0.90;;;17.00;99.90;;;;;;5095500;28;20429;-61
2023/06/08 03:57:55;;;;;;;1.20;0.90;;;17.00;99.90;;;;;;5095654;28;20429;-61
2023/06/08 04:00:22;;;;;;;1.10;0.90;;;17.10;99.90;;;;;;5094676;28;20694;-61
2023/06/08 04:02:50;;;;;;;1.10;0.90;;;17.10;99.90;;;;;;5093875;28;20433;-61
2023/06/08 04:05:17;;;;;;;1.15;0.90;;;17.00;99.90;;;;;;5094444;28;20551;-62
2023/06/08 04:07:47;;;;;;;1.40;0.90;;;17.00;99.90;;;;;;5095861;28;20825;-61
2023/06/08 04:10:14;;;;;;;1.10;0.85;;;17.00;99.90;;;;;;5095054;28;20740;-61
2023/06/08 04:12:43;;;;;;;1.80;0.90;;;16.90;99.90;;;;;;5094174;28;20480;-61
2023/06/08 04:15:11;;;;;;;1.20;0.80;;;16.80;99.90;;;;;;5095368;28;20480;-61
2023/06/08 04:17:40;;;;;;;1.00;0.90;;;16.90;99.90;;;;;;5095344;28;20430;-61
2023/06/08 04:20:08;;;;;;;1.30;0.88;;;16.90;99.90;;;;;;5095291;28;20418;-61
2023/06/08 04:22:35;;;;;;;1.40;0.90;;;16.90;99.90;;;;;;5094800;28;20892;-61
2023/06/08 04:25:02;;;;;;;1.38;1.05;;;16.90;99.90;;;;;;5095328;28;20512;-61
2023/06/08 04:27:29;;;;;;;1.50;0.90;;;17.00;99.90;;;;;;5094222;28;20852;-61
2023/06/08 04:29:58;;;;;;;1.30;1.00;;;17.10;99.90;;;;;;5094794;28;20479;-61
2023/06/08 04:32:26;;;;;;;1.30;1.02;;;17.20;99.90;;;;;;5095194;28;20429;-61
2023/06/08 04:34:53;;;;;;;1.90;1.10;;;17.20;99.90;;;;;;5094454;28;20424;-60
2023/06/08 04:37:20;;;;;;;1.95;1.08;;;17.20;99.90;;;;;;5093482;28;20503;-60
2023/06/08 04:39:48;;;;;;;1.30;1.00;;;17.10;99.90;;;;;;5093974;28;20449;-61
2023/06/08 04:42:17;;;;;;;1.10;0.90;;;17.20;99.90;;;;;;5093433;28;20523;-59
2023/06/08 04:44:44;;;;;;;1.90;0.90;;;17.30;99.90;;;;;;5095216;28;20457;-60
2023/06/08 04:47:14;;;;;;;1.50;1.10;;;17.40;99.90;;;;;;5094985;28;20507;-60
2023/06/08 04:49:41;;;;;;;1.70;1.10;;;17.40;99.90;;;;;;5095029;28;20430;-59
2023/06/08 04:52:13;;;;;;;1.53;1.00;;;17.40;99.90;;;;;;5095124;28;20434;-60
2023/06/08 04:54:40;;;;;;;1.48;1.00;;;17.40;99.90;;;;;;5094807;28;20436;-60
2023/06/08 04:57:09;;;;;;;1.30;1.00;;;17.30;99.90;;;;;;5094885;28;20421;-60
2023/06/08 04:59:37;;;;;;;1.00;0.90;;;17.20;99.90;;;;;;5094451;28;20436;-60
2023/06/08 05:02:04;;;;;;;1.20;0.90;;;17.20;99.90;;;;;;5096533;28;20734;-60
2023/06/08 05:04:33;;;;;;;1.10;0.90;;;17.10;99.90;;;;;;5099700;28;20903;-60
2023/06/08 05:07:00;;;;;;;1.30;1.00;;;17.10;99.90;;;;;;5098741;28;20418;-60
2023/06/08 05:09:27;;;;;;;1.20;1.10;;;17.30;99.90;;;;;;5098711;28;20518;-60
2023/06/08 05:11:53;;;;;;;1.10;0.98;;;17.60;99.90;;;;;;5098424;28;20776;-60
2023/06/08 05:14:20;;;;;;;1.70;1.00;;;17.90;99.90;;;;;;5098557;28;20479;-61
2023/06/08 05:16:47;;;;;;;1.50;1.00;;;18.00;99.90;;;;;;5097676;28;20424;-60
2023/06/08 05:19:14;;;;;;;1.20;1.00;;;18.20;99.90;;;;;;5098419;28;20429;-61
2023/06/08 05:21:43;;;;;;;1.10;0.90;;;18.30;99.90;;;;;;5098635;28;20430;-60
2023/06/08 05:24:10;;;;;;;1.10;1.00;;;18.50;99.90;;;;;;5098696;28;20486;-60
2023/06/08 05:26:36;;;;;;;1.30;1.00;;;18.40;99.90;;;;;;5098784;28;20523;-60
2023/06/08 05:29:03;;;;;;;1.80;1.00;;;18.40;99.90;;;;;;5097996;28;20443;-61
2023/06/08 05:31:31;;;;;;;1.30;0.90;;;18.50;99.90;;;;;;5097545;28;20466;-60
2023/06/08 05:33:57;;;;;;;1.30;1.00;;;18.70;99.90;;;;;;5098554;28;20853;-60
2023/06/08 05:36:25;;;;;;;1.80;1.00;;;18.80;99.90;;;;;;5098465;28;20425;-61
2023/06/08 05:38:53;;;;;;;1.33;1.00;;;19.00;99.90;;;;;;5098792;28;20437;-61
2023/06/08 05:41:20;;;;;;;1.20;1.00;;;19.10;99.90;;;;;;5098106;28;20429;-61
2023/06/08 05:43:47;;;;;;;1.30;1.10;;;19.30;99.90;;;;;;5098585;28;20421;-61
2023/06/08 05:46:15;;;;;;;1.90;1.17;;;19.30;99.90;;;;;;5098393;28;20860;-61
2023/06/08 05:48:42;;;;;;;1.83;1.00;;;19.40;99.90;;;;;;5097836;28;20429;-61
2023/06/08 05:51:09;;;;;;;1.27;1.00;;;19.30;99.90;;;;;;5097927;28;20525;-61
2023/06/08 05:53:38;;;;;;;1.40;1.20;;;19.50;99.90;;;;;;5097906;28;20422;-60
2023/06/08 05:56:06;;;;;;;2.30;1.20;;;19.50;99.90;;;;;;5098158;28;20444;-60
2023/06/08 05:58:33;;;;;;;1.40;1.20;;;19.40;99.90;;;;;;5098246;28;20714;-60
2023/06/08 06:01:04;;;;;;;1.90;1.10;;;19.30;99.90;;;;;;5097920;28;20428;-62
2023/06/08 06:03:31;;;;;;;2.20;1.20;;;19.20;99.90;;;;;;5097081;28;20456;-60
2023/06/08 06:05:59;;;;;;;1.60;1.40;;;19.30;99.90;;;;;;5095699;28;20479;-62
2023/06/08 06:08:26;;;;;;;1.70;1.20;;;19.50;99.90;;;;;;5096459;28;20424;-62
2023/06/08 06:10:53;;;;;;;2.00;1.80;;;19.70;99.90;;;;;;5096598;28;20938;-62
2023/06/08 06:13:21;;;;;;;1.40;1.10;;;20.00;99.90;;;;;;5096491;28;20988;-62
2023/06/08 06:15:48;;;;;;;1.30;1.00;;;20.00;99.90;;;;;;5096973;28;20722;-61
2023/06/08 06:18:15;;;;;;;1.40;1.20;;;20.20;99.90;;;;;;5095800;28;20496;-61
2023/06/08 06:20:42;;;;;;;1.35;1.10;;;20.40;99.90;;;;;;5095359;28;20494;-62
2023/06/08 06:23:09;;;;;;;1.42;1.10;;;20.60;99.90;;;;;;5097658;28;20425;-61
2023/06/08 06:25:36;;;;;;;1.30;1.10;;;20.60;99.90;;;;;;5097274;28;20430;-62
2023/06/08 06:28:03;;;;;;;1.20;1.10;;;20.70;99.90;;;;;;5097458;28;20413;-62
2023/06/08 06:30:32;;;;;;;1.50;1.10;;;20.80;99.90;;;;;;5097568;28;20565;-62
2023/06/08 06:32:59;;;;;;;2.60;1.20;;;20.90;99.90;;;;;;5097274;28;20429;-60
2023/06/08 06:35:27;;;;;;;1.40;1.30;;;20.80;99.90;;;;;;5094916;28;20525;-63
2023/06/08 06:37:55;;;;;;;1.40;1.10;;;20.70;99.90;;;;;;5097444;28;20430;-61
2023/06/08 06:40:22;;;;;;;1.67;1.30;;;20.70;99.90;;;;;;5096812;28;20452;-61
2023/06/08 06:42:49;;;;;;;1.40;1.20;;;20.70;99.90;;;;;;5096825;28;20491;-61
2023/06/08 06:45:16;;;;;;;1.80;1.10;;;20.60;99.90;;;;;;5096850;28;20766;-61
2023/06/08 06:47:45;;;;;;;1.60;1.30;;;20.60;99.90;;;;;;5095191;28;20482;-61
2023/06/08 06:50:11;;;;;;;1.83;1.10;;;20.60;99.90;;;;;;5095539;28;20521;-61
2023/06/08 06:52:38;;;;;;;1.47;1.20;;;20.70;99.90;;;;;;5094594;28;20473;-61
2023/06/08 06:55:06;;;;;;;1.60;1.20;;;20.80;99.90;;;;;;5095916;28;20426;-60
2023/06/08 06:57:32;;;;;;;1.50;1.20;;;21.00;99.90;;;;;;5095511;28;20426;-61
2023/06/08 07:00:00;;;;;;;2.80;1.50;;;21.00;99.90;;;;;;5095022;28;20858;-62
2023/06/08 07:02:28;;;;;;;1.50;1.20;;;20.90;99.90;;;;;;5094884;28;20418;-61
2023/06/08 07:04:58;;;;;;;1.60;1.30;;;21.00;99.90;;;;;;5094985;28;20453;-61
2023/06/08 07:07:26;;;;;;;1.20;1.00;;;21.10;99.90;;;;;;5096527;28;20440;-60
2023/06/08 07:09:53;;;;;;;1.98;1.27;;;21.30;99.90;;;;;;5096439;28;20528;-60
2023/06/08 07:12:20;;;;;;;1.92;1.10;;;21.40;99.90;;;;;;5096796;28;20494;-61
2023/06/08 07:14:47;;;;;;;1.60;1.10;;;21.50;99.90;;;;;;5096009;28;20425;-61
2023/06/08 07:17:14;;;;;;;1.30;1.20;;;21.70;99.90;;;;;;5096518;28;20452;-60
2023/06/08 07:19:42;;;;;;;1.70;1.10;;;21.80;99.90;;;;;;5095950;28;20422;-61
2023/06/08 07:22:10;;;;;;;1.80;1.20;;;21.80;99.90;;;;;;5096252;28;20433;-61
2023/06/08 07:24:37;;;;;;;1.70;1.02;;;21.80;99.90;;;;;;5095128;28;20530;-61
2023/06/08 07:27:05;;;;;;;1.40;1.08;;;21.80;99.90;;;;;;5094977;28;20461;-61
2023/06/08 07:29:32;;;;;;;2.00;1.17;;;21.70;99.90;;;;;;5094876;28;20429;-61
2023/06/08 07:31:59;;;;;;;1.60;1.10;;;21.70;99.90;;;;;;5094761;28;20901;-61
2023/06/08 07:34:27;;;;;;;1.30;1.00;;;21.80;99.90;;;;;;5096125;28;20735;-61
2023/06/08 07:36:54;;;;;;;1.90;1.00;;;21.80;99.90;;;;;;5095034;28;20825;-62
2023/06/08 07:39:23;;;;;;;1.40;1.10;;;21.90;99.90;;;;;;5094364;28;20884;-61
2023/06/08 07:41:50;;;;;;;2.10;0.90;;;21.90;99.90;;;;;;5093655;28;20772;-62
2023/06/08 07:44:16;;;;;;;1.30;1.00;;;21.90;99.90;;;;;;5095816;28;20422;-62
2023/06/08 07:46:43;;;;;;;1.67;0.95;;;21.90;99.90;;;;;;5095389;28;20422;-62
2023/06/08 07:49:10;;;;;;;1.30;1.08;;;22.00;99.90;;;;;;5095200;28;20702;-61
2023/06/08 07:51:38;;;;;;;1.30;1.10;;;22.10;99.90;;;;;;5095301;28;20578;-62
2023/06/08 07:54:06;;;;;;;1.40;1.10;;;22.10;99.90;;;;;;5095359;28;20432;-62
2023/06/08 07:56:35;;;;;;;1.50;1.00;;;22.20;99.90;;;;;;5096098;28;20422;-63
2023/06/08 07:59:02;;;;;;;1.80;1.02;;;22.30;99.90;;;;;;5095514;28;20429;-63
2023/06/08 08:01:29;;;;;;;1.90;1.00;;;22.30;99.90;;;;;;5095520;28;20425;-61
2023/06/08 08:03:56;;;;;;;1.20;1.00;;;22.40;99.90;;;;;;5094624;28;20845;-62
2023/06/08 08:06:23;;;;;;;1.10;0.90;;;22.50;99.90;;;;;;5095172;28;20426;-62
2023/06/08 08:08:50;;;;;;;1.10;1.00;;;22.70;99.90;;;;;;5095937;28;20500;-62
2023/06/08 08:11:17;;;;;;;1.20;1.00;;;22.90;99.90;;;;;;5095526;28;20903;-62
2023/06/08 08:13:46;;;;;;;1.40;1.00;;;23.00;99.90;;;;;;5094258;28;20787;-63
2023/06/08 08:16:13;;;;;;;1.40;1.05;;;23.00;99.90;;;;;;5094392;28;20433;-61
2023/06/08 08:18:40;;;;;;;1.40;1.00;;;23.20;99.90;;;;;;5095300;28;20437;-61
2023/06/08 08:21:07;;;;;;;1.40;1.10;;;23.40;99.90;;;;;;5095348;28;20429;-62
2023/06/08 08:23:34;;;;;;;1.20;1.00;;;23.50;99.90;;;;;;5094990;28;20434;-61
2023/06/08 08:26:01;;;;;;;1.90;1.00;;;23.60;99.90;;;;;;5093986;28;20468;-61
2023/06/08 08:28:29;;;;;;;1.63;1.20;;;23.50;99.90;;;;;;5088624;28;20422;-61
2023/06/08 08:30:59;;;;;;;1.80;1.30;;;23.40;99.90;;;;;;5094726;28;20479;-61
2023/06/08 08:33:26;;;;;;;1.50;1.20;;;23.30;99.90;;;;;;5093998;28;20899;-61
2023/06/08 08:35:53;;;;;;;1.40;1.30;;;23.40;99.90;;;;;;5094184;28;20426;-61
2023/06/08 08:38:20;;;;;;;1.60;1.10;;;23.50;99.90;;;;;;5094264;28;20514;-62
2023/06/08 08:40:48;;;;;;;2.70;1.50;;;23.50;99.90;;;;;;5092770;28;20776;-62
2023/06/08 08:43:23;;;;;;;1.30;1.15;;;23.20;99.90;;;;;;5094817;28;20426;-63
2023/06/08 08:45:51;;;;;;;1.30;1.20;;;22.90;99.90;;;;;;5094188;28;20495;-62
2023/06/08 08:48:23;;;;;;;1.80;1.20;;;22.90;99.90;;;;;;5100256;28;20533;-62
2023/06/08 08:50:53;;;;;;;1.98;1.20;;;23.10;99.90;;;;;;5093585;28;20527;-62
2023/06/08 08:53:21;;;;;;;1.60;0.98;;;23.30;99.90;;;;;;5093289;28;20464;-61
2023/06/08 08:55:48;;;;;;;1.20;1.05;;;23.50;99.90;;;;;;5098233;28;20456;-62
2023/06/08 08:58:18;;;;;;;1.40;1.10;;;23.50;99.90;;;;;;5093191;28;20475;-62
2023/06/08 09:00:48;;;;;;;1.52;1.20;;;23.60;99.90;;;;;;5093416;28;20597;-62
2023/06/08 09:03:15;;;;;;;2.40;1.10;;;23.70;99.90;;;;;;5097319;28;20434;-62
2023/06/08 09:05:45;;;;;;;3.30;1.10;;;23.60;99.90;;;;;;5098345;28;20467;-61
2023/06/08 09:08:12;;;;;;;1.42;1.05;;;23.70;99.90;;;;;;5100370;28;20429;-62
2023/06/08 09:10:39;;;;;;;1.40;1.00;;;23.90;99.90;;;;;;5093991;28;20426;-62
2023/06/08 09:13:06;;;;;;;1.80;1.08;;;23.70;99.90;;;;;;5093627;28;20591;-62
2023/06/08 09:15:36;;;;;;;1.80;1.00;;;23.90;99.90;;;;;;5094685;28;20479;-62
2023/06/08 09:18:16;;;;;;;1.55;1.15;;;24.10;99.90;;;;;;5093586;28;20430;-62
2023/06/08 09:20:45;;;;;;;1.15;1.00;;;24.10;99.90;;;;;;5094124;28;20428;-64
2023/06/08 09:23:16;;;;;;;1.30;0.90;;;24.20;99.90;;;;;;5094534;28;20455;-62
2023/06/08 09:25:43;;;;;;;1.80;1.10;;;24.20;99.90;;;;;;5094448;28;20520;-62
2023/06/08 09:28:18;;;;;;;1.20;1.00;;;24.40;99.90;;;;;;5093770;28;20524;-62
2023/06/08 09:30:48;;;;;;;1.60;1.00;;;24.60;99.90;;;;;;5094161;28;20440;-62
2023/06/08 09:33:20;;;;;;;1.27;1.08;;;24.60;99.90;;;;;;5094006;28;20487;-63
2023/06/08 09:35:49;;;;;;;1.40;1.00;;;24.50;99.90;;;;;;5094097;28;20437;-62
2023/06/08 09:38:18;;;;;;;1.40;1.00;;;24.60;99.90;;;;;;5094006;28;20422;-63
2023/06/08 09:40:46;;;;;;;1.38;1.00;;;24.80;99.90;;;;;;5093977;28;20457;-62
2023/06/08 09:43:13;;;;;;;1.10;0.90;;;24.80;99.90;;;;;;5094191;28;20425;-62
2023/06/08 09:45:44;;;;;;;1.20;1.00;;;24.90;99.90;;;;;;5093901;28;20483;-61
2023/06/08 09:48:13;;;;;;;1.10;1.00;;;24.90;99.90;;;;;;5095724;28;20476;-62
2023/06/08 09:50:40;;;;;;;1.10;0.90;;;25.20;99.90;;;;;;5097509;28;20508;-62
2023/06/08 09:53:08;;;;;;;1.00;0.90;;;25.30;99.90;;;;;;5097179;28;20425;-62
2023/06/08 09:55:37;;;;;;;1.10;0.93;;;25.50;99.90;;;;;;5097370;28;20457;-62
2023/06/08 09:58:05;;;;;;;1.20;1.00;;;25.40;99.90;;;;;;5097908;28;20845;-62
2023/06/08 10:00:35;;;;;;;1.80;1.00;;;25.50;99.90;;;;;;5096873;28;21100;-62
2023/06/08 10:03:08;;;;;;;1.50;1.02;;;25.60;99.90;;;;;;5095944;28;20528;-62
2023/06/08 10:05:39;;;;;;;1.58;1.00;;;25.70;99.90;;;;;;5097173;28;20434;-62
2023/06/08 10:08:12;;;;;;;1.27;0.90;;;25.90;99.90;;;;;;5097249;28;20421;-62
2023/06/08 10:10:41;;;;;;;1.10;1.00;;;26.20;99.30;;;;;;5096184;28;20733;-63
2023/06/08 10:13:10;;;;;;;0.90;0.80;;;26.20;98.30;;;;;;5097141;28;20798;-63
2023/06/08 10:15:38;;;;;;;1.40;1.00;;;26.20;98.80;;;;;;5096901;28;20488;-61
2023/06/08 10:18:05;;;;;;;1.00;0.90;;;26.50;98.30;;;;;;5096498;28;20487;-64
2023/06/08 10:20:33;;;;;;;1.60;1.00;;;26.40;98.10;;;;;;5096219;28;20429;-63
2023/06/08 10:23:02;;;;;;;1.20;1.00;;;26.00;98.80;;;;;;5096095;28;20424;-63
2023/06/08 10:25:31;;;;;;;1.30;1.00;;;26.00;98.30;;;;;;5097647;28;20418;-62
2023/06/08 10:28:05;;;;;;;1.10;1.00;;;26.30;97.30;;;;;;5095181;28;20538;-63
2023/06/08 10:30:39;;;;;;;1.20;1.00;;;26.50;96.10;;;;;;5096499;28;20479;-62
2023/06/08 10:33:10;;;;;;;1.30;1.00;;;27.00;94.70;;;;;;5097400;28;20483;-63
2023/06/08 10:35:37;;;;;;;1.60;1.30;;;27.50;94.10;;;;;;5095960;28;20426;-63
2023/06/08 10:38:15;;;;;;;1.40;1.10;;;27.80;92.90;;;;;;5095502;28;20425;-63
2023/06/08 10:40:45;;;;;;;1.20;1.00;;;28.10;92.20;;;;;;5094682;28;20430;-63
2023/06/08 10:43:12;;;;;;;1.65;1.10;;;28.50;91.30;;;;;;5097140;28;20426;-62
2023/06/08 10:45:41;;;;;;;1.10;1.00;;;28.70;87.70;;;;;;5096510;28;20422;-64
2023/06/08 10:48:09;;;;;;;1.65;1.00;;;28.80;83.80;;;;;;5095174;28;20741;-64
2023/06/08 10:50:42;;;;;;;1.20;1.00;;;28.60;80.10;;;;;;5094103;28;20422;-63
2023/06/08 10:53:09;;;;;;;1.80;1.00;;;28.50;80.20;;;;;;5092776;28;20854;-63
2023/06/08 10:55:36;;;;;;;1.90;1.10;;;28.70;75.80;;;;;;5092393;28;20434;-63
2023/06/08 10:58:15;;;;;;;1.40;1.10;;;28.60;73.70;;;;;;5091873;28;20429;-62
2023/06/08 11:00:43;;;;;;;1.50;1.10;;;28.80;75.80;;;;;;5090248;28;20425;-62
2023/06/08 11:03:13;;;;;;;1.25;1.10;;;29.30;73.60;;;;;;5093937;28;20503;-63
2023/06/08 11:05:43;;;;;;;1.10;1.00;;;29.60;73.30;;;;;;5094503;28;20506;-65
2023/06/08 11:08:10;;;;;;;1.30;1.20;;;29.80;70.80;;;;;;5095335;28;20425;-63
2023/06/08 11:10:39;;;;;;;1.20;1.10;;;30.00;69.70;;;;;;5094989;28;20761;-65
2023/06/08 11:13:08;;;;;;;1.20;1.10;;;30.10;69.80;;;;;;5094985;28;20429;-63
2023/06/08 11:15:37;;;;;;;1.20;1.10;;;29.70;68.40;;;;;;5095380;28;20422;-63
2023/06/08 11:18:07;;;;;;;1.20;1.10;;;29.90;65.90;;;;;;5095333;28;20481;-62
2023/06/08 11:20:34;;;;;;;2.00;1.10;;;30.20;64.50;;;;;;5094943;28;20452;-63
2023/06/08 11:23:02;;;;;;;1.10;1.00;;;30.50;61.90;;;;;;5096196;28;20451;-63
2023/06/08 11:25:29;;;;;;;1.40;1.20;;;29.80;64.10;;;;;;5096287;28;20515;-64
2023/06/08 11:27:57;;;;;;;2.10;1.10;;;30.00;61.00;;;;;;5095455;28;20487;-64
2023/06/08 11:30:28;;;;;;;1.30;1.20;;;29.60;61.50;;;;;;5095782;28;20426;-64
2023/06/08 11:32:56;;;;;;;1.20;1.10;;;29.90;61.30;;;;;;5095137;28;20476;-63
2023/06/08 11:35:23;;;;;;;1.45;1.30;;;30.30;61.80;;;;;;5094662;28;20471;-64
2023/06/08 11:37:51;;;;;;;1.40;1.10;;;30.30;59.50;;;;;;5094782;28;20483;-64
2023/06/08 11:40:18;;;;;;;1.40;1.20;;;29.80;56.80;;;;;;5094938;28;20574;-64
2023/06/08 11:42:46;;;;;;;1.25;1.10;;;29.80;54.50;;;;;;5095281;28;20421;-64
2023/06/08 11:45:15;;;;;;;1.60;1.10;;;29.90;53.90;;;;;;5094233;28;20491;-64
2023/06/08 11:47:44;;;;;;;1.17;1.07;;;29.70;52.40;;;;;;5094600;28;20421;-65
2023/06/08 11:50:13;;;;;;;1.33;1.20;;;29.20;56.30;;;;;;5095750;28;20493;-64
2023/06/08 11:52:42;;;;;;;1.30;1.05;;;29.10;57.00;;;;;;5094247;28;20530;-64
2023/06/08 11:55:13;;;;;;;1.50;1.40;;;29.70;56.80;;;;;;5094268;28;20417;-64
2023/06/08 11:57:41;;;;;;;1.40;1.30;;;29.80;56.10;;;;;;5095199;28;20834;-64
2023/06/08 12:00:12;;;;;;;1.30;1.20;;;29.40;57.80;;;;;;5096779;28;20738;-68
2023/06/08 12:02:39;;;;;;;1.40;1.20;;;29.20;58.10;;;;;;5100961;28;20859;-63
2023/06/08 12:05:15;;;;;;;1.38;1.20;;;29.70;58.60;;;;;;5105754;28;20765;-63
2023/06/08 12:07:54;;;;;;;1.52;1.30;;;29.90;58.10;;;;;;5099042;28;20474;-63
2023/06/08 12:10:21;;;;;;;1.50;1.40;;;29.80;58.30;;;;;;5114731;28;20420;-64
2023/06/08 12:12:51;;;;;;;2.00;1.80;;;29.30;58.00;;;;;;5109954;28;20522;-64
2023/06/08 12:15:19;;;;;;;1.98;1.50;;;28.80;59.90;;;;;;5093924;28;20418;-63
2023/06/08 12:17:46;;;;;;;1.30;1.20;;;28.20;59.90;;;;;;5094185;28;20519;-62
2023/06/08 12:20:17;;;;;;;2.42;1.30;;;28.00;62.50;;;;;;5095447;28;20429;-63
2023/06/08 12:22:44;;;;;;;1.50;1.40;;;28.20;59.80;;;;;;5102492;28;20416;-62
2023/06/08 12:25:11;;;;;;;1.50;1.20;;;27.60;57.10;;;;;;5105001;28;20422;-63
2023/06/08 12:27:39;;;;;;;1.30;1.20;;;27.20;58.50;;;;;;5094921;28;21016;-62
2023/06/08 12:30:09;;;;;;;1.30;1.20;;;27.10;60.10;;;;;;5098203;28;20428;-62
2023/06/08 12:32:36;;;;;;;3.60;1.50;;;27.00;60.90;;;;;;5103605;28;20464;-63
2023/06/08 12:35:04;;;;;;;1.40;1.00;;;26.80;61.20;;;;;;5095954;28;20434;-65
2023/06/08 12:37:33;;;;;;;2.20;1.10;;;26.50;66.10;;;;;;5094479;28;20458;-66
2023/06/08 12:40:00;;;;;;;1.30;1.10;;;25.90;69.20;;;;;;5094762;28;20520;-66
2023/06/08 12:42:27;;;;;;;1.23;1.00;;;25.60;71.40;;;;;;5091923;28;20576;-65
2023/06/08 12:44:55;;;;;;;2.70;1.00;;;25.10;78.10;;;;;;5094423;28;20428;-59
2023/06/08 12:47:22;;;;;;;4.47;1.30;;;24.50;85.60;;;;;;5093231;28;20471;-57
2023/06/08 12:49:49;;;;;;;4.78;1.70;;;23.80;99.90;;;;;;5091685;28;20490;-56
2023/06/08 12:52:18;;;;;;;5.43;1.93;;;22.80;99.90;;;;;;5093436;28;20466;-56
2023/06/08 12:54:49;;;;;;;3.30;1.50;;;22.10;99.90;;;;;;5092654;28;20468;-54